Time;durP1;ratioP1;P1;durP2;ratioP2;P2;SDS_P1;SDS_P2;PMS_P1;PMS_P2;Temp;Humidity;BMP_temperature;BMP_pressure;BME280_temperature;BME280_humidity;BME280_pressure;Samples;Min_cycle;Max_cycle;Signal;HPM_P1;HPM_P2
2021/12/31 00:00:48;;;;;;;3.47;0.98;;;13.70;99.90;;;;;;4993136;28;20030;-87
2021/12/31 00:03:16;;;;;;;1.20;0.80;;;13.70;99.90;;;;;;4993196;28;20030;-86
2021/12/31 00:05:42;;;;;;;1.45;1.10;;;13.80;99.90;;;;;;4993216;28;20030;-87
2021/12/31 00:08:08;;;;;;;0.75;0.73;;;13.80;99.90;;;;;;4975755;28;20471;-86
2021/12/31 00:10:35;;;;;;;0.77;0.77;;;13.80;99.90;;;;;;4992811;28;20073;-86
2021/12/31 00:13:02;;;;;;;0.88;0.75;;;13.80;99.90;;;;;;4993170;28;20372;-86
2021/12/31 00:15:27;;;;;;;0.80;0.80;;;13.80;99.90;;;;;;4993463;28;20458;-86
2021/12/31 00:18:02;;;;;;;1.10;0.73;;;13.80;99.90;;;;;;4975697;28;20035;-85
2021/12/31 00:20:28;;;;;;;3.25;1.00;;;13.80;99.90;;;;;;4993263;28;20023;-86
2021/12/31 00:25:32;;;;;;;1.20;1.10;;;13.70;99.90;;;;;;4992839;28;20426;-86
2021/12/31 00:27:57;;;;;;;1.33;0.90;;;13.70;99.90;;;;;;4993219;28;20422;-89
2021/12/31 00:30:23;;;;;;;1.35;1.30;;;13.80;99.90;;;;;;4975493;28;20022;-85
2021/12/31 00:32:49;;;;;;;1.95;1.00;;;13.80;99.90;;;;;;4992303;28;20045;-85
2021/12/31 00:35:15;;;;;;;1.70;1.23;;;13.70;99.90;;;;;;4993195;28;20038;-84
2021/12/31 00:37:49;;;;;;;3.72;1.27;;;13.70;99.90;;;;;;4992924;28;20038;-85
2021/12/31 00:40:16;;;;;;;1.27;1.17;;;13.70;99.90;;;;;;4995760;28;20022;-84
2021/12/31 00:42:42;;;;;;;1.02;1.00;;;13.70;99.90;;;;;;4995835;28;20058;-85
2021/12/31 00:45:17;;;;;;;2.17;1.00;;;13.70;99.90;;;;;;4979236;28;20110;-85
2021/12/31 00:47:43;;;;;;;1.30;0.93;;;13.70;99.90;;;;;;4979029;28;20145;-84
2021/12/31 00:50:09;;;;;;;2.35;1.02;;;13.70;99.90;;;;;;4996734;28;20042;-84
2021/12/31 00:52:47;;;;;;;1.08;1.05;;;13.70;99.90;;;;;;4996189;28;20030;-86
2021/12/31 00:55:13;;;;;;;4.28;1.00;;;13.70;99.90;;;;;;4996224;28;20022;-86
2021/12/31 00:57:39;;;;;;;7.57;1.73;;;13.70;99.90;;;;;;4996609;28;20026;-85
2021/12/31 01:00:16;;;;;;;1.73;1.30;;;13.70;99.90;;;;;;4996476;28;20030;-85
2021/12/31 01:02:46;;;;;;;1.40;1.00;;;13.70;99.90;;;;;;4995694;28;20486;-86
2021/12/31 01:05:15;;;;;;;1.40;1.30;;;13.70;99.90;;;;;;4996236;28;20046;-86
2021/12/31 01:07:41;;;;;;;3.17;1.20;;;13.80;99.90;;;;;;4996408;28;20498;-85
2021/12/31 01:10:11;;;;;;;1.77;1.48;;;13.70;99.90;;;;;;4996090;28;20031;-85
2021/12/31 01:12:42;;;;;;;2.00;1.50;;;13.70;99.90;;;;;;4996140;28;20027;-84
2021/12/31 01:20:25;;;;;;;6.97;1.50;;;13.70;99.90;;;;;;4977143;28;20040;-85
2021/12/31 01:22:50;;;;;;;1.70;1.60;;;13.70;99.90;;;;;;4984803;28;20044;-85
2021/12/31 01:25:16;;;;;;;2.13;1.63;;;13.70;99.90;;;;;;4978138;28;20389;-84
2021/12/31 01:27:43;;;;;;;4.25;1.90;;;13.70;99.90;;;;;;4995946;28;20451;-84
2021/12/31 01:30:13;;;;;;;1.77;1.55;;;13.70;99.90;;;;;;4995991;28;20046;-85
2021/12/31 01:32:40;;;;;;;2.25;2.03;;;13.70;99.90;;;;;;4995784;28;20027;-85
2021/12/31 01:35:06;;;;;;;4.53;1.63;;;13.70;99.90;;;;;;4995947;28;20014;-85
2021/12/31 01:37:32;;;;;;;3.78;1.73;;;13.80;99.90;;;;;;4995625;28;20435;-84
2021/12/31 01:39:57;;;;;;;9.38;2.00;;;13.80;99.90;;;;;;4995613;28;20069;-85
2021/12/31 01:42:30;;;;;;;3.55;1.60;;;13.80;99.90;;;;;;4977847;28;20018;-84
2021/12/31 01:44:59;;;;;;;3.55;1.80;;;13.70;99.90;;;;;;4995530;28;20113;-84
2021/12/31 01:47:34;;;;;;;2.65;1.60;;;13.70;99.90;;;;;;4995734;28;20114;-84
2021/12/31 01:50:11;;;;;;;5.43;1.80;;;13.60;99.90;;;;;;4994765;28;20446;-84
2021/12/31 01:52:40;;;;;;;2.38;1.40;;;13.60;99.90;;;;;;4977557;28;20081;-84
2021/12/31 01:55:10;;;;;;;3.05;1.60;;;13.60;99.90;;;;;;4995273;28;20037;-85
2021/12/31 01:57:38;;;;;;;2.28;1.45;;;13.60;99.90;;;;;;4995389;28;20023;-85
2021/12/31 02:00:04;;;;;;;7.78;2.50;;;13.50;99.90;;;;;;4995569;28;20029;-85
2021/12/31 02:02:30;;;;;;;2.50;1.13;;;13.60;99.90;;;;;;4977872;28;20622;-84
2021/12/31 02:04:56;;;;;;;1.00;1.00;;;13.60;99.90;;;;;;4978095;28;20118;-85
2021/12/31 02:07:21;;;;;;;2.05;1.50;;;13.60;99.90;;;;;;4978023;28;20452;-85
2021/12/31 02:09:54;;;;;;;1.50;1.10;;;13.50;99.90;;;;;;4977511;28;20026;-85
2021/12/31 02:12:21;;;;;;;1.02;1.02;;;13.50;99.90;;;;;;4975859;28;20478;-85
2021/12/31 02:14:47;;;;;;;1.30;1.15;;;13.50;99.90;;;;;;4991943;28;20395;-85
2021/12/31 02:17:13;;;;;;;1.00;1.00;;;13.50;99.90;;;;;;4995059;28;20113;-85
2021/12/31 02:19:39;;;;;;;1.58;1.00;;;13.50;99.90;;;;;;4995081;28;20030;-85
2021/12/31 02:22:24;;;;;;;0.85;0.85;;;13.50;99.90;;;;;;4994977;28;20019;-84
2021/12/31 02:24:50;;;;;;;0.95;0.80;;;13.50;99.90;;;;;;4975517;28;20027;-84
2021/12/31 02:27:16;;;;;;;0.90;0.73;;;13.50;99.90;;;;;;4975569;28;20038;-85
2021/12/31 02:29:42;;;;;;;0.85;0.85;;;13.50;99.90;;;;;;4958173;28;20074;-85
2021/12/31 02:32:08;;;;;;;7.45;0.70;;;13.40;99.90;;;;;;4975235;28;20023;-85
2021/12/31 02:34:33;;;;;;;0.95;0.90;;;13.40;99.90;;;;;;4974101;28;20037;-84
2021/12/31 02:37:03;;;;;;;5.22;1.05;;;13.50;99.90;;;;;;4981694;28;20033;-84
2021/12/31 02:39:29;;;;;;;0.95;0.68;;;13.40;99.90;;;;;;4994632;28;20382;-84
2021/12/31 02:41:55;;;;;;;0.82;0.82;;;13.40;99.90;;;;;;4976860;28;20026;-83
2021/12/31 02:44:20;;;;;;;3.20;1.00;;;13.30;99.90;;;;;;4976993;28;20101;-83
2021/12/31 02:46:46;;;;;;;0.80;0.80;;;13.30;99.90;;;;;;4977137;28;20070;-85
2021/12/31 02:49:13;;;;;;;1.77;1.08;;;13.20;99.90;;;;;;4994355;28;20077;-85
2021/12/31 02:51:39;;;;;;;2.00;0.95;;;13.10;99.90;;;;;;4994105;28;20097;-87
2021/12/31 02:54:12;;;;;;;1.90;0.90;;;13.10;99.90;;;;;;4993935;28;20057;-86
2021/12/31 02:56:38;;;;;;;2.25;1.05;;;13.00;99.90;;;;;;4976917;28;20030;-87
2021/12/31 02:59:04;;;;;;;2.28;1.30;;;13.00;99.90;;;;;;4976784;28;20387;-85
2021/12/31 03:01:36;;;;;;;0.95;0.90;;;13.00;99.90;;;;;;4994276;28;20029;-85
2021/12/31 03:04:03;;;;;;;1.25;0.70;;;13.00;99.90;;;;;;4993565;28;20035;-85
2021/12/31 03:06:30;;;;;;;0.98;0.88;;;12.90;99.90;;;;;;4994277;28;20023;-85
2021/12/31 03:08:58;;;;;;;2.00;0.88;;;12.90;99.90;;;;;;4976447;28;20026;-85
2021/12/31 03:11:24;;;;;;;1.58;1.10;;;12.90;99.90;;;;;;4994145;28;20435;-86
2021/12/31 03:13:54;;;;;;;2.05;1.05;;;13.00;99.90;;;;;;4994210;28;20030;-85
2021/12/31 03:16:22;;;;;;;2.28;1.20;;;12.90;99.90;;;;;;4993979;28;20058;-87
2021/12/31 03:18:50;;;;;;;2.13;1.00;;;13.00;99.90;;;;;;4994199;28;20034;-85
2021/12/31 03:21:21;;;;;;;1.50;1.00;;;13.00;99.90;;;;;;4994168;28;20030;-85
2021/12/31 03:23:49;;;;;;;2.88;1.10;;;13.00;99.90;;;;;;4974288;28;20023;-87
2021/12/31 03:26:15;;;;;;;5.18;1.25;;;13.10;99.90;;;;;;4974349;28;20023;-87
2021/12/31 03:28:40;;;;;;;1.10;0.98;;;13.10;99.90;;;;;;4974823;28;20158;-86
2021/12/31 03:31:06;;;;;;;2.83;0.93;;;13.10;99.90;;;;;;4976327;28;20026;-86
2021/12/31 03:33:31;;;;;;;2.60;1.10;;;13.20;99.90;;;;;;4993437;28;20490;-85
2021/12/31 03:35:57;;;;;;;2.25;1.20;;;13.20;99.90;;;;;;4993739;28;20041;-86
2021/12/31 03:38:36;;;;;;;4.65;1.17;;;13.10;99.90;;;;;;4993472;28;20026;-88
2021/12/31 03:41:01;;;;;;;0.80;0.70;;;13.10;99.90;;;;;;4992965;28;20022;-85
2021/12/31 03:43:27;;;;;;;7.07;1.33;;;13.10;99.90;;;;;;4975769;28;20570;-85
2021/12/31 03:45:53;;;;;;;3.13;1.08;;;13.10;99.90;;;;;;4993414;28;20026;-85
2021/12/31 03:48:19;;;;;;;2.90;1.05;;;13.10;99.90;;;;;;4993299;28;20022;-86
2021/12/31 03:50:46;;;;;;;2.90;1.35;;;13.10;99.90;;;;;;4993416;28;20525;-85
2021/12/31 03:53:14;;;;;;;0.60;0.60;;;13.10;99.90;;;;;;4993360;28;20506;-86
2021/12/31 03:55:40;;;;;;;9.38;1.20;;;13.10;99.90;;;;;;4993312;28;20033;-86
2021/12/31 03:58:06;;;;;;;5.00;1.02;;;13.00;99.90;;;;;;4975960;28;20052;-85
2021/12/31 04:00:34;;;;;;;1.25;0.90;;;13.00;99.90;;;;;;4975914;28;20030;-85
2021/12/31 04:03:10;;;;;;;1.88;1.38;;;13.00;99.90;;;;;;4993293;28;20479;-85
2021/12/31 04:05:38;;;;;;;4.28;1.35;;;13.00;99.90;;;;;;4975772;28;20053;-85
2021/12/31 04:08:31;;;;;;;4.18;0.95;;;13.00;99.90;;;;;;4993212;28;20038;-85
2021/12/31 04:10:57;;;;;;;1.88;1.27;;;13.00;99.90;;;;;;4956167;28;20019;-87
2021/12/31 04:13:22;;;;;;;1.20;1.08;;;13.00;99.90;;;;;;4956589;28;20022;-87
2021/12/31 04:16:15;;;;;;;3.53;1.30;;;13.00;99.90;;;;;;4977945;28;20356;-85
2021/12/31 04:18:41;;;;;;;7.68;1.60;;;13.00;99.90;;;;;;4971445;28;20034;-85
2021/12/31 04:21:07;;;;;;;6.72;1.30;;;13.10;99.90;;;;;;4997249;28;20027;-85
2021/12/31 04:23:37;;;;;;;2.35;1.40;;;13.10;99.90;;;;;;4996850;28;20020;-86
2021/12/31 04:26:05;;;;;;;1.88;1.27;;;13.10;99.90;;;;;;4997188;28;20073;-87
2021/12/31 04:28:31;;;;;;;2.22;1.08;;;13.10;99.90;;;;;;4997025;28;20022;-87
2021/12/31 04:30:58;;;;;;;3.53;1.50;;;13.10;99.90;;;;;;4996944;28;20496;-86
2021/12/31 04:33:23;;;;;;;3.35;1.40;;;13.10;99.90;;;;;;4997008;28;20027;-86
2021/12/31 04:35:57;;;;;;;3.40;1.15;;;13.10;99.90;;;;;;4997177;28;20387;-87
2021/12/31 04:38:23;;;;;;;1.45;1.00;;;13.20;99.90;;;;;;4996888;28;20026;-86
2021/12/31 04:40:49;;;;;;;3.95;1.33;;;13.20;99.90;;;;;;4996081;28;20026;-87
2021/12/31 04:43:15;;;;;;;1.95;1.20;;;13.30;99.90;;;;;;4978533;28;20038;-85
2021/12/31 04:45:40;;;;;;;3.10;1.38;;;13.20;99.90;;;;;;4996926;28;20037;-84
2021/12/31 04:48:06;;;;;;;2.33;1.13;;;13.20;99.90;;;;;;5000231;28;20030;-85
2021/12/31 04:50:31;;;;;;;6.90;1.25;;;13.20;99.90;;;;;;4996655;28;20037;-85
2021/12/31 04:52:59;;;;;;;1.60;1.10;;;13.20;99.90;;;;;;4996688;28;20044;-85
2021/12/31 04:55:24;;;;;;;3.22;1.40;;;13.20;99.90;;;;;;4996207;28;20022;-85
2021/12/31 04:57:50;;;;;;;3.17;1.40;;;13.20;99.90;;;;;;4978911;28;20085;-86
2021/12/31 05:00:31;;;;;;;2.67;1.30;;;13.20;99.90;;;;;;4996670;28;20033;-85
2021/12/31 05:02:57;;;;;;;3.65;1.20;;;13.20;99.90;;;;;;4996304;28;20050;-85
2021/12/31 05:05:38;;;;;;;1.35;1.20;;;13.20;99.90;;;;;;4996492;28;20505;-84
2021/12/31 05:08:04;;;;;;;4.78;1.52;;;13.20;99.90;;;;;;4996044;28;20470;-85
2021/12/31 05:10:32;;;;;;;3.00;1.27;;;13.20;99.90;;;;;;4995813;28;20030;-85
2021/12/31 05:12:59;;;;;;;3.97;1.48;;;13.20;99.90;;;;;;4996113;28;20045;-84
2021/12/31 05:15:29;;;;;;;2.00;1.20;;;13.10;99.90;;;;;;4996179;28;20023;-84
2021/12/31 05:17:55;;;;;;;5.70;1.27;;;13.10;99.90;;;;;;4996175;28;20022;-84
2021/12/31 05:20:22;;;;;;;3.60;1.30;;;13.10;99.90;;;;;;4995077;28;20026;-85
2021/12/31 05:22:48;;;;;;;4.57;1.45;;;13.10;99.90;;;;;;4995485;28;20030;-85
2021/12/31 05:25:27;;;;;;;2.65;1.20;;;13.10;99.90;;;;;;4994473;28;20566;-84
2021/12/31 05:27:52;;;;;;;3.22;1.30;;;13.10;99.90;;;;;;4978793;28;20474;-85
2021/12/31 05:30:18;;;;;;;3.60;1.08;;;13.10;99.90;;;;;;4978900;28;20027;-85
2021/12/31 05:32:45;;;;;;;4.68;1.25;;;13.10;99.90;;;;;;4996029;28;20037;-85
2021/12/31 05:35:11;;;;;;;6.93;1.25;;;13.20;99.90;;;;;;4995957;28;20050;-84
2021/12/31 05:37:36;;;;;;;3.65;1.50;;;13.20;99.90;;;;;;4995565;28;20061;-84
2021/12/31 05:40:08;;;;;;;4.43;1.27;;;13.20;99.90;;;;;;4995316;28;20030;-84
2021/12/31 05:42:34;;;;;;;4.95;1.10;;;13.20;99.90;;;;;;4977698;28;20788;-85
2021/12/31 05:45:04;;;;;;;9.02;2.10;;;13.30;99.90;;;;;;4995598;28;20030;-84
2021/12/31 05:47:30;;;;;;;3.35;1.45;;;13.30;99.90;;;;;;4994935;28;20081;-85
2021/12/31 05:49:57;;;;;;;4.47;1.40;;;13.30;99.90;;;;;;4977930;28;20502;-85
2021/12/31 05:52:22;;;;;;;2.58;1.00;;;13.30;99.90;;;;;;4977206;28;20038;-85
2021/12/31 05:54:48;;;;;;;4.05;1.23;;;13.30;99.90;;;;;;4993665;28;20036;-84
2021/12/31 05:57:15;;;;;;;2.72;1.30;;;13.30;99.90;;;;;;4994496;28;20065;-85
2021/12/31 05:59:40;;;;;;;2.08;1.17;;;13.30;99.90;;;;;;4995353;28;20360;-85
2021/12/31 06:02:06;;;;;;;3.63;1.20;;;13.30;99.90;;;;;;4977739;28;20072;-85
2021/12/31 06:04:46;;;;;;;2.75;1.17;;;13.30;99.90;;;;;;4995365;28;20105;-86
2021/12/31 06:07:11;;;;;;;6.60;1.40;;;13.30;99.90;;;;;;4990774;28;20390;-85
2021/12/31 06:09:37;;;;;;;4.15;1.40;;;13.30;99.90;;;;;;4994532;28;20037;-85
2021/12/31 06:12:05;;;;;;;3.95;1.45;;;13.30;99.90;;;;;;4995047;28;20030;-85
2021/12/31 06:14:32;;;;;;;2.22;1.50;;;13.30;99.90;;;;;;4995071;28;20045;-85
2021/12/31 06:17:03;;;;;;;4.38;1.30;;;13.30;99.90;;;;;;4995140;28;20080;-84
2021/12/31 06:19:38;;;;;;;2.70;1.40;;;13.30;99.90;;;;;;4994951;28;20018;-84
2021/12/31 06:22:04;;;;;;;;;;;13.30;99.90;;;;;;4994941;28;20035;-85
2021/12/31 06:24:29;;;;;;;3.78;1.30;;;13.30;99.90;;;;;;4994175;28;19906;-85
2021/12/31 06:26:55;;;;;;;4.90;1.13;;;13.20;99.90;;;;;;4993930;28;20065;-85
2021/12/31 06:29:21;;;;;;;2.83;1.13;;;13.30;99.90;;;;;;4994541;28;20026;-85
2021/12/31 06:31:46;;;;;;;4.05;1.13;;;13.30;99.90;;;;;;4993230;28;20382;-85
2021/12/31 06:34:12;;;;;;;2.30;1.20;;;13.30;99.90;;;;;;4994080;28;20038;-85
2021/12/31 06:36:37;;;;;;;3.25;1.52;;;13.30;99.90;;;;;;4993010;28;20023;-85
2021/12/31 06:39:04;;;;;;;2.70;1.17;;;13.30;99.90;;;;;;4973885;28;20108;-85
2021/12/31 06:41:30;;;;;;;2.03;1.17;;;13.30;99.90;;;;;;4977720;28;20099;-83
2021/12/31 06:43:55;;;;;;;2.22;1.15;;;13.30;99.90;;;;;;4962917;28;20060;-85
2021/12/31 06:46:21;;;;;;;5.05;1.50;;;13.30;99.90;;;;;;4955786;29;20023;-85
2021/12/31 06:48:47;;;;;;;2.72;1.75;;;13.30;99.90;;;;;;4955526;29;20042;-84
2021/12/31 06:51:16;;;;;;;3.42;2.08;;;13.30;99.90;;;;;;4955403;29;20510;-83
2021/12/31 06:53:42;;;;;;;4.03;1.30;;;13.30;99.90;;;;;;4955146;29;20604;-85
2021/12/31 06:56:07;;;;;;;5.28;2.03;;;13.30;99.90;;;;;;4955498;29;20069;-84
2021/12/31 06:58:33;;;;;;;8.57;2.35;;;13.30;99.90;;;;;;4955342;29;20027;-85
2021/12/31 07:00:59;;;;;;;4.53;1.52;;;13.30;99.90;;;;;;4955242;29;20019;-84
2021/12/31 07:03:24;;;;;;;2.95;1.33;;;13.30;99.90;;;;;;4955224;29;20407;-85
2021/12/31 07:05:50;;;;;;;5.47;1.30;;;13.30;99.90;;;;;;4955142;29;20027;-84
2021/12/31 07:08:17;;;;;;;4.28;2.10;;;13.30;99.90;;;;;;4954762;29;20039;-84
2021/12/31 07:10:42;;;;;;;1.13;0.90;;;13.30;99.90;;;;;;4955223;29;20103;-84
2021/12/31 07:13:11;;;;;;;4.25;1.35;;;13.30;99.90;;;;;;4954990;29;20106;-84
2021/12/31 07:15:45;;;;;;;3.65;1.30;;;13.20;99.90;;;;;;4954960;29;20436;-84
2021/12/31 07:18:11;;;;;;;2.28;1.05;;;13.30;99.90;;;;;;4954958;29;20431;-84
2021/12/31 07:20:37;;;;;;;7.28;1.30;;;13.20;99.90;;;;;;4954797;29;20031;-84
2021/12/31 07:23:05;;;;;;;8.20;1.33;;;13.20;99.90;;;;;;4954424;29;20420;-85
2021/12/31 07:25:31;;;;;;;8.30;1.63;;;13.20;99.90;;;;;;4954995;29;20034;-86
2021/12/31 07:27:56;;;;;;;3.60;1.52;;;13.30;99.90;;;;;;4954670;29;20494;-84
2021/12/31 07:30:22;;;;;;;3.78;1.20;;;13.30;99.90;;;;;;4954810;29;20031;-85
2021/12/31 07:32:47;;;;;;;4.40;1.10;;;13.20;99.90;;;;;;4937543;29;20476;-84
2021/12/31 07:35:13;;;;;;;4.03;1.33;;;13.20;99.90;;;;;;4954630;29;20034;-85
2021/12/31 07:37:39;;;;;;;6.55;1.15;;;13.20;99.90;;;;;;4954501;29;20094;-85
2021/12/31 07:40:06;;;;;;;4.55;1.15;;;13.20;99.90;;;;;;4954200;29;20027;-85
2021/12/31 07:42:32;;;;;;;4.00;1.60;;;13.20;99.90;;;;;;4954969;28;20065;-87
2021/12/31 07:44:57;;;;;;;3.55;1.50;;;13.20;99.90;;;;;;4955929;28;20510;-84
2021/12/31 07:47:23;;;;;;;3.92;1.50;;;13.20;99.90;;;;;;4954459;28;20038;-85
2021/12/31 07:49:49;;;;;;;4.20;1.30;;;13.20;99.90;;;;;;4970057;28;20049;-84
2021/12/31 07:52:14;;;;;;;1.75;1.42;;;13.20;99.90;;;;;;4971101;28;20394;-85
2021/12/31 07:54:40;;;;;;;1.77;1.40;;;13.20;99.90;;;;;;4972771;28;20031;-86
2021/12/31 07:57:06;;;;;;;7.38;1.67;;;13.20;99.90;;;;;;4973054;28;20041;-84
2021/12/31 07:59:32;;;;;;;3.00;1.35;;;13.20;99.90;;;;;;4969056;28;20022;-84
2021/12/31 08:01:57;;;;;;;11.25;1.48;;;13.10;99.90;;;;;;4975378;28;20602;-84
2021/12/31 08:04:23;;;;;;;2.45;1.27;;;13.10;99.90;;;;;;4973661;28;20090;-85
2021/12/31 08:06:49;;;;;;;4.43;1.58;;;13.20;99.90;;;;;;4972554;28;20035;-84
2021/12/31 08:09:14;;;;;;;10.10;1.80;;;13.20;99.90;;;;;;4980683;28;20031;-85
2021/12/31 08:11:41;;;;;;;7.78;1.85;;;13.20;99.90;;;;;;4991790;28;20062;-84
2021/12/31 08:14:07;;;;;;;4.90;1.42;;;13.20;99.90;;;;;;4973499;28;20027;-84
2021/12/31 08:16:32;;;;;;;4.20;1.45;;;13.10;99.90;;;;;;4972734;28;20542;-85
2021/12/31 08:18:58;;;;;;;4.97;1.80;;;13.10;99.90;;;;;;4983076;28;20030;-85
2021/12/31 08:21:23;;;;;;;3.58;1.40;;;13.20;99.90;;;;;;4972962;28;20034;-84
2021/12/31 08:23:49;;;;;;;3.67;1.13;;;13.20;99.90;;;;;;4972436;28;20027;-84
2021/12/31 08:26:15;;;;;;;3.33;1.70;;;13.20;99.90;;;;;;4972224;28;20035;-85
2021/12/31 08:28:40;;;;;;;3.13;1.60;;;13.10;99.90;;;;;;4955932;28;20523;-84
2021/12/31 08:31:06;;;;;;;10.00;3.45;;;13.10;99.90;;;;;;4973284;28;20027;-84
2021/12/31 08:33:32;;;;;;;3.17;1.73;;;13.20;99.90;;;;;;4973149;28;20038;-84
2021/12/31 08:35:58;;;;;;;6.70;2.70;;;13.10;99.90;;;;;;4973276;28;20026;-84
2021/12/31 08:38:25;;;;;;;3.55;1.63;;;13.20;99.90;;;;;;4972814;28;20027;-84
2021/12/31 08:40:51;;;;;;;5.50;1.80;;;13.20;99.90;;;;;;4973257;28;20538;-85
2021/12/31 08:43:17;;;;;;;5.70;1.90;;;13.20;99.90;;;;;;4979293;28;20043;-84
2021/12/31 08:45:42;;;;;;;5.72;1.95;;;13.20;99.90;;;;;;4992681;28;20125;-84
2021/12/31 08:48:08;;;;;;;4.78;1.70;;;13.10;99.90;;;;;;4992608;28;20109;-84
2021/12/31 08:50:34;;;;;;;3.00;1.70;;;13.10;99.90;;;;;;4975267;28;20530;-85
2021/12/31 08:53:01;;;;;;;1.35;1.23;;;13.10;99.90;;;;;;4974597;28;20030;-84
2021/12/31 08:55:27;;;;;;;5.10;1.80;;;13.10;99.90;;;;;;4992602;28;20041;-84
2021/12/31 08:57:52;;;;;;;5.05;1.75;;;13.10;99.90;;;;;;4992336;28;20034;-84
2021/12/31 09:00:18;;;;;;;5.07;1.75;;;13.10;99.90;;;;;;4976452;28;20018;-84
2021/12/31 09:02:46;;;;;;;8.35;1.60;;;13.10;99.90;;;;;;4996197;28;20065;-85
2021/12/31 09:05:12;;;;;;;8.48;1.73;;;13.10;99.90;;;;;;4996132;28;20815;-84
2021/12/31 09:07:38;;;;;;;9.63;2.40;;;13.10;99.90;;;;;;4996072;28;20521;-85
2021/12/31 09:10:05;;;;;;;6.22;1.45;;;13.20;99.90;;;;;;4995724;28;20026;-84
2021/12/31 09:12:30;;;;;;;4.10;1.75;;;13.20;99.90;;;;;;4978517;28;20026;-84
2021/12/31 09:14:56;;;;;;;5.10;1.50;;;13.30;99.90;;;;;;4995690;28;20026;-85
2021/12/31 09:17:22;;;;;;;7.25;1.58;;;13.30;99.90;;;;;;4995974;28;20373;-84
2021/12/31 09:19:49;;;;;;;2.65;1.65;;;13.30;99.90;;;;;;4995928;28;20050;-84
2021/12/31 09:22:16;;;;;;;6.57;2.63;;;13.30;99.90;;;;;;4978165;28;20057;-85
2021/12/31 09:24:43;;;;;;;5.30;1.70;;;13.30;99.90;;;;;;4995545;28;20030;-84
2021/12/31 09:27:09;;;;;;;6.95;1.48;;;13.30;99.90;;;;;;4995441;28;20368;-84
2021/12/31 09:29:38;;;;;;;6.03;1.70;;;13.30;99.90;;;;;;4995333;28;20101;-86
2021/12/31 09:32:04;;;;;;;6.70;1.55;;;13.40;99.90;;;;;;4995567;28;20030;-85
2021/12/31 09:34:29;;;;;;;5.07;1.60;;;13.40;99.90;;;;;;4977923;28;20029;-85
2021/12/31 09:36:55;;;;;;;6.38;1.63;;;13.40;99.90;;;;;;4995467;28;20491;-85
2021/12/31 09:39:20;;;;;;;3.28;1.25;;;13.50;99.90;;;;;;4995134;28;20030;-84
2021/12/31 09:41:46;;;;;;;5.22;1.10;;;13.50;99.90;;;;;;4995492;28;20026;-84
2021/12/31 09:44:14;;;;;;;8.48;1.83;;;13.50;99.90;;;;;;4964261;28;20051;-84
2021/12/31 09:46:40;;;;;;;8.05;1.40;;;13.50;99.90;;;;;;4976057;28;20435;-84
2021/12/31 09:49:06;;;;;;;5.53;1.60;;;13.50;99.90;;;;;;4975904;28;20074;-84
2021/12/31 09:51:33;;;;;;;3.95;1.48;;;13.50;99.90;;;;;;4975912;28;20023;-84
2021/12/31 09:53:59;;;;;;;5.35;1.45;;;13.50;99.90;;;;;;4975412;28;20027;-85
2021/12/31 09:56:26;;;;;;;4.72;1.45;;;13.50;99.90;;;;;;4975810;28;20097;-85
2021/12/31 09:58:52;;;;;;;2.45;1.30;;;13.50;99.90;;;;;;4975972;28;20038;-84
2021/12/31 10:01:18;;;;;;;6.30;1.70;;;13.50;99.90;;;;;;4975448;28;20562;-85
2021/12/31 10:03:57;;;;;;;2.90;1.48;;;13.50;99.90;;;;;;4975730;28;20015;-84
2021/12/31 10:06:26;;;;;;;5.30;1.63;;;13.50;99.90;;;;;;4975663;28;20025;-84
2021/12/31 10:08:53;;;;;;;2.60;1.15;;;13.50;99.90;;;;;;4975306;28;20023;-85
2021/12/31 10:11:24;;;;;;;3.72;1.08;;;13.50;99.90;;;;;;4974857;28;20037;-85
2021/12/31 10:13:59;;;;;;;5.00;1.45;;;13.50;99.90;;;;;;4975517;28;20492;-84
2021/12/31 10:16:26;;;;;;;6.47;2.35;;;13.50;99.90;;;;;;4975652;28;20019;-84
2021/12/31 10:19:18;;;;;;;3.45;1.45;;;13.40;99.90;;;;;;4975364;28;20204;-83
2021/12/31 10:21:50;;;;;;;6.03;4.03;;;13.40;99.90;;;;;;4975391;28;20506;-84
2021/12/31 10:24:20;;;;;;;5.05;1.38;;;13.40;99.90;;;;;;4974854;28;20023;-84
2021/12/31 10:26:45;;;;;;;6.72;1.52;;;13.50;99.90;;;;;;4975539;28;20026;-84
2021/12/31 10:29:12;;;;;;;1.55;1.30;;;13.50;99.90;;;;;;4975150;28;20035;-85
2021/12/31 10:31:43;;;;;;;3.55;1.40;;;13.50;99.90;;;;;;4975086;28;20106;-84
2021/12/31 10:34:25;;;;;;;3.47;1.27;;;13.40;99.90;;;;;;4975084;28;20023;-84
2021/12/31 10:36:51;;;;;;;2.90;1.58;;;13.40;99.90;;;;;;4957912;28;20062;-85
2021/12/31 10:39:25;;;;;;;3.53;1.88;;;13.40;99.90;;;;;;4957145;28;20467;-84
2021/12/31 10:42:04;;;;;;;3.58;1.50;;;13.50;99.90;;;;;;4975060;28;20420;-84
2021/12/31 10:44:49;;;;;;;1.98;1.42;;;13.50;99.90;;;;;;4990610;28;20047;-85
2021/12/31 10:47:48;;;;;;;11.95;2.90;;;13.50;99.90;;;;;;4994238;28;20026;-85
2021/12/31 10:50:16;;;;;;;2.65;1.23;;;13.60;99.90;;;;;;4976578;28;20038;-85
2021/12/31 10:53:00;;;;;;;16.35;8.13;;;13.90;99.90;;;;;;4993734;28;20026;-84
2021/12/31 10:55:33;;;;;;;1.75;1.20;;;14.00;99.90;;;;;;4994140;28;20019;-84
2021/12/31 10:58:03;;;;;;;5.32;3.10;;;14.00;99.90;;;;;;4994052;28;20053;-84
2021/12/31 11:00:34;;;;;;;5.75;1.38;;;14.10;99.90;;;;;;4994120;28;20434;-84
2021/12/31 11:03:01;;;;;;;2.45;1.05;;;14.20;99.90;;;;;;4993864;28;20022;-85
2021/12/31 11:05:27;;;;;;;4.35;1.38;;;14.40;99.90;;;;;;4993866;28;20022;-84
2021/12/31 11:07:54;;;;;;;4.00;1.23;;;14.40;99.90;;;;;;4976201;28;20023;-84
2021/12/31 11:10:25;;;;;;;3.35;1.42;;;14.40;99.90;;;;;;4993813;28;20034;-86
2021/12/31 11:12:52;;;;;;;3.25;0.93;;;14.40;99.90;;;;;;4993985;28;20458;-85
2021/12/31 11:15:18;;;;;;;5.05;1.70;;;14.40;99.90;;;;;;4976170;28;20037;-85
2021/12/31 11:17:44;;;;;;;4.45;1.45;;;14.40;99.90;;;;;;4976169;28;20033;-84
2021/12/31 11:20:12;;;;;;;4.13;1.50;;;14.50;99.90;;;;;;5005482;28;20030;-85
2021/12/31 11:22:38;;;;;;;3.45;1.05;;;14.50;99.90;;;;;;4994630;28;20049;-84
2021/12/31 11:25:24;;;;;;;3.20;1.77;;;14.40;99.90;;;;;;5012455;28;20104;-85
2021/12/31 11:27:51;;;;;;;1.13;0.93;;;14.50;99.90;;;;;;5013078;28;20518;-85
2021/12/31 11:30:35;;;;;;;3.40;1.20;;;14.50;99.90;;;;;;5013353;28;20042;-85
2021/12/31 11:33:14;;;;;;;2.97;1.00;;;14.60;99.90;;;;;;4995308;28;20509;-85
2021/12/31 11:35:46;;;;;;;2.38;1.10;;;14.70;99.90;;;;;;5013035;28;20023;-84
2021/12/31 11:38:36;;;;;;;1.52;1.13;;;14.70;99.90;;;;;;5012562;28;20406;-84
2021/12/31 11:41:19;;;;;;;1.25;0.93;;;14.60;99.90;;;;;;4998755;28;20027;-84
2021/12/31 11:44:07;;;;;;;23.13;11.15;;;14.60;99.90;;;;;;4991580;28;20097;-84
2021/12/31 11:46:35;;;;;;;22.67;8.65;;;14.50;99.90;;;;;;4974197;28;20030;-85
2021/12/31 11:49:03;;;;;;;4.30;1.00;;;14.60;99.90;;;;;;4990523;28;20045;-85
2021/12/31 11:51:35;;;;;;;26.63;9.88;;;14.60;99.90;;;;;;4989955;28;20027;-85
2021/12/31 11:54:00;;;;;;;20.23;7.30;;;14.60;99.90;;;;;;4980302;28;20022;-84
2021/12/31 11:56:40;;;;;;;2.95;0.98;;;14.60;99.90;;;;;;4967324;28;20018;-85
2021/12/31 11:59:09;;;;;;;2.58;1.10;;;14.60;99.90;;;;;;4993142;28;20033;-86
2021/12/31 12:01:37;;;;;;;6.07;1.58;;;14.70;99.90;;;;;;4974832;28;20030;-87
2021/12/31 12:04:25;;;;;;;3.95;1.33;;;14.70;99.90;;;;;;4992692;28;20487;-85
2021/12/31 12:07:06;;;;;;;2.78;1.20;;;14.70;99.90;;;;;;4992628;28;20023;-85
2021/12/31 12:09:37;;;;;;;1.15;0.88;;;14.70;99.90;;;;;;4981719;28;20023;-84
2021/12/31 12:12:35;;;;;;;9.15;3.38;;;14.70;99.90;;;;;;4993091;28;20023;-85
2021/12/31 12:15:03;;;;;;;8.63;2.40;;;14.60;99.90;;;;;;4975416;28;20165;-85
2021/12/31 12:17:28;;;;;;;6.10;1.83;;;14.60;99.90;;;;;;4992860;28;20030;-85
2021/12/31 12:19:57;;;;;;;1.98;0.88;;;14.50;99.90;;;;;;4975661;28;20023;-86
2021/12/31 12:22:34;;;;;;;6.40;2.55;;;14.60;99.90;;;;;;4977105;28;20022;-86
2021/12/31 12:25:24;;;;;;;12.00;5.18;;;14.60;99.90;;;;;;4992950;28;20029;-85
2021/12/31 12:28:04;;;;;;;1.88;1.35;;;14.70;99.90;;;;;;4981115;28;20490;-86
2021/12/31 12:30:30;;;;;;;2.25;0.93;;;14.70;99.90;;;;;;4992909;28;20373;-86
2021/12/31 12:33:16;;;;;;;2.00;0.90;;;14.70;99.90;;;;;;4993623;28;20034;-85
2021/12/31 12:35:47;;;;;;;2.35;1.20;;;14.80;99.90;;;;;;4975606;28;20042;-85
2021/12/31 12:38:29;;;;;;;11.73;2.80;;;14.80;99.90;;;;;;4987088;28;20517;-85
2021/12/31 12:41:00;;;;;;;2.80;1.13;;;14.70;99.90;;;;;;4976012;28;20038;-86
2021/12/31 12:43:36;;;;;;;5.43;1.23;;;14.80;99.90;;;;;;4995599;28;20043;-85
2021/12/31 12:46:07;;;;;;;13.27;4.32;;;14.70;99.90;;;;;;4978715;28;20445;-86
2021/12/31 12:48:36;;;;;;;2.50;1.10;;;14.70;99.90;;;;;;4996207;28;20041;-85
2021/12/31 12:51:04;;;;;;;0.85;0.80;;;14.60;99.90;;;;;;4978728;28;20041;-86
2021/12/31 12:53:32;;;;;;;4.25;1.80;;;14.60;99.90;;;;;;4994836;28;20386;-85
2021/12/31 12:56:18;;;;;;;27.70;8.93;;;14.60;99.90;;;;;;4978414;28;20034;-85
2021/12/31 12:58:46;;;;;;;3.92;1.23;;;14.60;99.90;;;;;;4995781;28;20026;-85
2021/12/31 13:01:12;;;;;;;1.90;0.90;;;14.60;99.90;;;;;;4995578;28;20045;-85